Warning: Javascript must be enabled to use all the features on this page!


Page Loading - Please Wait...

Click to hideNews Bulletins

Peak Streamflow for the Nation

USGS 02053200 POTECASI CREEK NEAR UNION, NC

Hertford County, North Carolina
Hydrologic Unit Code 03010204
Latitude  36°22'15", Longitude  77°01'32" NAD83
Drainage area 225  square miles
Gage datum 2.4 feet above NAVD88
Output formats
Table
Graph
Tab-separated file
peakfq (watstore) format
Reselect output format
Water
Year
Date Gage
Height
(feet)
Stream-
flow
(cfs)
1929 1929 19.10Bm 4,0507,Bm
1940 1940-08 24.10Bd 7,0007,Bd
1958 1958-05-10 19.12 4,050
1959 1959-04-16 11.62 1,360
1960 1960-09-14 18.80 4,000
1961 1961-05-13 12.56 1,640
1962 1962-02-27 12.20 1,520
1963 1963-01-22 12.33 1,550
1964 1964-04-11 13.75 1,800
1965 1964-10-07 17.66 3,160
1966 1966-03-06 13.58 1,870
1967 1967-08-25 14.44 2,130
1968 1968-01-17 15.82 2,550
1969 1969-08-08   2,300
1970 1970-02-05 12.88 1,660
1971 1971-02-09 13.54 1,860
1972 1971-10-27 13.21 1,760
1973 1973-08-19 14.17 2,050
1974 1973-12-24 10.12 984
1975 1975-03-20 15.41 2,420
1976 1976-01-31 14.12 2,040
1977 1977-03-08 11.76 1,330
1978 1978-01-22 14.90 2,260
1979 1979-09-08 19.77 4,280
1980 1980-03-09 11.23 1,260
1981 1981-06-07 9.74 887
1982 1982-01-06 11.30 1,280
1983 1983-04-18 15.28 2,520
1984 1984-03-31 15.36 2,540
1985 1985-09-28 14.49 2,240
1986 1985-11-25 14.88 2,380
1987 1987-01-23 16.57 2,990
1988 1988-02-16 10.31 1,110
1989 1989-03-08 15.09 2,570
1990 1989-12-15 12.58 1,670
1991 1991-08-08 12.87 1,630
1992 1992-08-19 21.77 5,650
1993 1993-03-07 12.80 1,560
1994 1994-03-12 17.30 3,220
1995 1995-02-19 13.21 1,640
1996 1996-01-21 11.04 1,030
1997 1996-10-11 13.35 1,680
1998 1998-02-07 16.68 2,940
1999 1999-09-17 28.90 17,000
2000 1999-10-20 19.08 4,090
2001 2001-06-19 15.31 2,360
2002 2002-04-04 9.33 687
2003 2003-09-22 18.50 2,890
2004 2004-08-18 18.062 3,5608
2005 2005-01-18 10.86 927
2006 2006-06-17 18.27 3,670
2007 2006-11-24 13.59 1,750
2008 2008-04-25 11.63 1,180
2009 2009-03-21 11.40 1,080
2010 2010-02-08 15.60 2,260
2011 2010-10-02 23.41 6,920
2012 2012-06-05 12.54 1,350
2013 2013-07-05 13.462 1,600
2014 2014-04-30 17.10 2,950
2015 2014-12-27 12.35 1,310
2016 2016-09-24 21.40 5,430
2017 2016-10-10 26.98 11,400
2018 2018-08-01 14.79 2,190
2019 2019-02-26 16.56 2,960
2020 2020-02-09 14.35 2,060
2021 2020-11-14 21.05 5,530
2022 2022-01-07 10.22 806
?
  Peak Gage-Height Qualification Codes.
?
  Peak Streamflow Qualification Codes.